createdAt,value
2022-08-30T00:01:42.502Z,19.39
2022-08-30T00:16:44.351Z,19.10
2022-08-30T00:31:45.960Z,19.17
2022-08-30T00:46:47.476Z,19.13
2022-08-30T01:01:49.122Z,19.72
2022-08-30T01:16:51.016Z,19.02
2022-08-30T01:31:52.563Z,18.86
2022-08-30T01:46:54.730Z,19.11
2022-08-30T02:01:56.320Z,18.58
2022-08-30T02:16:58.004Z,17.98
2022-08-30T02:31:59.773Z,18.27
2022-08-30T02:47:01.361Z,18.00
2022-08-30T03:02:02.962Z,18.43
2022-08-30T03:17:06.869Z,18.09
2022-08-30T03:32:17.621Z,18.84
2022-08-30T03:47:19.830Z,18.00
2022-08-30T04:02:21.754Z,18.55
2022-08-30T04:17:23.742Z,18.65
2022-08-30T04:32:25.404Z,18.27
2022-08-30T04:47:27.123Z,20.40
2022-08-30T05:02:28.801Z,20.85
2022-08-30T05:17:30.420Z,19.96
2022-08-30T05:32:31.965Z,21.03
2022-08-30T05:47:33.580Z,21.29
2022-08-30T06:02:35.232Z,21.37
2022-08-30T06:17:39.705Z,20.75
2022-08-30T06:32:41.340Z,22.04
2022-08-30T06:47:44.881Z,21.82
2022-08-30T07:02:46.614Z,21.37
2022-08-30T07:18:06.824Z,23.35
2022-08-30T07:33:08.476Z,21.76
2022-08-30T07:48:11.689Z,22.96
2022-08-30T08:03:13.468Z,22.80
2022-08-30T08:18:15.231Z,23.07
2022-08-30T08:33:17.714Z,22.72
2022-08-30T08:48:58.510Z,23.10
2022-08-30T09:04:01.898Z,23.60
2022-08-30T09:19:03.519Z,24.73
2022-08-30T09:34:09.433Z,24.84
2022-08-30T09:49:26.216Z,25.48
2022-08-30T10:04:43.077Z,25.85
2022-08-30T10:19:47.543Z,27.59
2022-08-30T10:35:01.473Z,28.28
2022-08-30T10:50:07.319Z,28.01
2022-08-30T11:05:32.177Z,27.77
2022-08-30T11:20:42.811Z,26.95
2022-08-30T11:35:48.330Z,27.27
2022-08-30T11:50:53.176Z,26.66
2022-08-30T12:05:59.810Z,28.21
2022-08-30T12:21:05.250Z,27.79
2022-08-30T12:36:13.616Z,30.43
2022-08-30T12:51:36.939Z,28.71
2022-08-30T13:06:42.583Z,28.05
2022-08-30T13:21:50.173Z,27.28
2022-08-30T13:36:54.517Z,27.99
2022-08-30T13:52:19.315Z,28.47
2022-08-30T14:07:20.479Z,28.62
2022-08-30T14:22:22.789Z,28.66
2022-08-30T14:37:24.411Z,28.77
2022-08-30T14:52:27.255Z,27.94
2022-08-30T15:07:29.149Z,27.05
2022-08-30T15:22:30.724Z,26.72
2022-08-30T15:37:32.233Z,26.20
2022-08-30T15:52:34.286Z,25.47
2022-08-30T16:07:40.407Z,24.37
2022-08-30T16:22:45.801Z,23.92
2022-08-30T16:37:48.042Z,23.16
2022-08-30T16:52:50.458Z,22.85
2022-08-30T17:07:52.509Z,22.09
2022-08-30T17:22:54.032Z,22.09
2022-08-30T17:37:55.958Z,21.85
2022-08-30T17:52:57.548Z,21.77
2022-08-30T18:07:59.070Z,21.68
2022-08-30T18:23:02.259Z,21.44
2022-08-30T18:38:03.889Z,20.99
2022-08-30T18:53:06.588Z,20.83
2022-08-30T19:08:11.122Z,20.90
2022-08-30T19:23:13.492Z,20.46
2022-08-30T19:38:15.873Z,20.45
2022-08-30T19:53:18.042Z,20.51
2022-08-30T20:08:19.799Z,20.35
2022-08-30T20:23:24.115Z,20.32
2022-08-30T20:38:27.361Z,20.65
2022-08-30T20:53:28.933Z,20.68
2022-08-30T21:08:30.657Z,20.70
2022-08-30T21:23:32.587Z,20.12
2022-08-30T21:38:34.358Z,21.02
2022-08-30T21:53:36.495Z,19.91
2022-08-30T22:16:08.746Z,19.71
2022-08-30T22:31:11.352Z,19.60
2022-08-30T22:46:12.952Z,19.67
2022-08-30T23:01:18.541Z,20.35
2022-08-30T23:16:20.435Z,20.84
2022-08-30T23:31:40.589Z,21.01
2022-08-30T23:47:00.801Z,21.02
